Time,TemperatureF,DewpointF,PressureIn,WindDirection,WindDirectionDegrees,WindSpeedMPH,WindSpeedGustMPH,Humidity,HourlyPrecipIn,Conditions,Clouds,dailyrainin,SoftwareType,DateUTC
2013-04-21 03:01:00,33.6,20.8,30.18,West,270,4.2,-999.0,59,-99.99,,,0.00,Acu-Link.com,2013-04-21 07:01:00,
2013-04-21 03:21:00,33.3,20.1,30.19,NW,315,3.7,-999.0,58,-99.99,,,0.00,Acu-Link.com,2013-04-21 07:21:00,
2013-04-21 03:38:00,32.9,19.8,30.22,NW,315,4.7,-999.0,58,-99.99,,,0.00,Acu-Link.com,2013-04-21 07:38:00,
2013-04-21 03:55:00,32.7,18.8,30.20,NW,315,2.7,-999.0,56,-99.99,,,0.00,Acu-Link.com,2013-04-21 07:55:00,
2013-04-21 04:11:00,32.7,18.8,30.20,North,0,2.7,-999.0,56,-99.99,,,0.00,Acu-Link.com,2013-04-21 08:11:00,
2013-04-21 04:26:00,32.5,18.6,30.23,WNW,292,4.2,-999.0,56,-99.99,,,0.00,Acu-Link.com,2013-04-21 08:26:00,
2013-04-21 04:42:00,32.4,18.5,30.23,WNW,292,4.7,-999.0,56,-99.99,,,0.00,Acu-Link.com,2013-04-21 08:42:00,
2013-04-21 04:57:00,32.2,18.7,30.26,West,270,3.2,-999.0,57,-99.99,,,0.00,Acu-Link.com,2013-04-21 08:57:00,
2013-04-21 05:28:00,32.0,19.3,30.26,West,270,2.2,-999.0,59,-99.99,,,0.00,Acu-Link.com,2013-04-21 09:28:00,
2013-04-21 05:43:00,31.8,19.9,30.26,NE,45,3.2,-999.0,61,-99.99,,,0.00,Acu-Link.com,2013-04-21 09:43:00,
2013-04-21 05:59:00,31.3,21.3,30.29,NE,45,6.3,-999.0,66,-99.99,,,0.00,Acu-Link.com,2013-04-21 09:59:00,
2013-04-21 06:14:00,30.6,20.3,30.29,ENE,67,4.7,-999.0,65,-99.99,,,0.00,Acu-Link.com,2013-04-21 10:14:00,
2013-04-21 06:31:00,29.8,18.0,30.31,NNW,337,3.2,-999.0,61,-99.99,,,0.00,Acu-Link.com,2013-04-21 10:31:00,
2013-04-21 06:46:00,29.8,17.2,30.32,NNW,337,3.7,-999.0,59,-99.99,,,0.00,Acu-Link.com,2013-04-21 10:46:00,
2013-04-21 07:18:00,30.2,17.2,30.33,NW,315,4.7,-999.0,58,-99.99,,,0.00,Acu-Link.com,2013-04-21 11:18:00,
2013-04-21 07:34:00,31.3,17.9,30.34,West,270,3.2,-999.0,57,-99.99,,,0.00,Acu-Link.com,2013-04-21 11:34:00,
2013-04-21 07:50:00,31.3,18.3,30.36,WNW,292,3.7,-999.0,58,-99.99,,,0.00,Acu-Link.com,2013-04-21 11:50:00,
2013-04-21 08:06:00,31.1,18.5,30.39,NW,315,2.7,-999.0,59,-99.99,,,0.00,Acu-Link.com,2013-04-21 12:06:00,
2013-04-21 08:24:00,30.7,18.1,30.36,West,270,0.0,-999.0,59,-99.99,,,0.00,Acu-Link.com,2013-04-21 12:24:00,
2013-04-21 08:40:00,32.4,18.1,30.38,NNW,337,4.2,-999.0,55,-99.99,,,0.00,Acu-Link.com,2013-04-21 12:40:00,
2013-04-21 09:11:00,33.8,17.2,30.38,North,0,6.3,-999.0,50,-99.99,,,0.00,Acu-Link.com,2013-04-21 13:11:00,
2013-04-21 09:27:00,34.7,16.6,30.41,NW,315,5.8,-999.0,47,-99.99,,,0.00,Acu-Link.com,2013-04-21 13:27:00,
2013-04-21 09:42:00,36.0,17.3,30.39,NW,315,3.2,-999.0,46,-99.99,,,0.00,Acu-Link.com,2013-04-21 13:42:00,
2013-04-21 10:01:00,35.6,15.9,30.37,West,270,3.7,-999.0,44,-99.99,,,0.00,Acu-Link.com,2013-04-21 14:01:00,
2013-04-21 10:19:00,36.9,16.5,30.41,WNW,292,2.7,-999.0,43,-99.99,,,0.00,Acu-Link.com,2013-04-21 14:19:00,
2013-04-21 11:10:00,39.2,16.3,30.41,WNW,292,5.3,-999.0,39,-99.99,,,0.00,Acu-Link.com,2013-04-21 15:10:00,
2013-04-21 11:29:00,40.1,17.2,30.39,WNW,292,4.7,-999.0,39,-99.99,,,0.00,Acu-Link.com,2013-04-21 15:29:00,
2013-04-21 11:59:00,40.3,17.9,30.41,NE,45,3.7,-999.0,40,-99.99,,,0.00,Acu-Link.com,2013-04-21 15:59:00,
2013-04-21 12:20:00,41.9,17.6,30.40,NNE,22,5.8,-999.0,37,-99.99,,,0.00,Acu-Link.com,2013-04-21 16:20:00,
2013-04-21 12:55:00,41.9,17.6,30.39,WNW,292,5.8,-999.0,37,-99.99,,,0.00,Acu-Link.com,2013-04-21 16:55:00,
2013-04-21 13:24:00,43.0,17.2,30.41,WNW,292,4.7,-999.0,35,-99.99,,,0.00,Acu-Link.com,2013-04-21 17:24:00,
2013-04-21 15:39:00,47.8,17.9,30.38,West,270,5.3,-999.0,30,-99.99,,,0.00,Acu-Link.com,2013-04-21 19:39:00,
2013-04-21 15:54:00,48.9,18.1,30.36,NW,315,4.7,-999.0,29,-99.99,,,0.00,Acu-Link.com,2013-04-21 19:54:00,
2013-04-21 16:11:00,49.1,19.0,30.35,NW,315,2.7,-999.0,30,-99.99,,,0.00,Acu-Link.com,2013-04-21 20:11:00,
2013-04-21 16:56:00,49.1,17.4,30.35,West,270,2.7,-999.0,28,-99.99,,,0.00,Acu-Link.com,2013-04-21 20:56:00,
2013-04-21 17:23:00,50.4,15.0,30.41,SSE,157,4.2,-999.0,24,-99.99,,,0.00,Acu-Link.com,2013-04-21 21:23:00,
2013-04-21 17:40:00,48.0,14.8,30.38,North,0,3.2,-999.0,26,-99.99,,,0.00,Acu-Link.com,2013-04-21 21:40:00,
2013-04-21 17:55:00,47.8,15.5,30.39,NW,315,7.3,-999.0,27,-99.99,,,0.00,Acu-Link.com,2013-04-21 21:55:00,
2013-04-21 18:25:00,46.8,15.4,30.43,West,270,2.7,-999.0,28,-99.99,,,0.00,Acu-Link.com,2013-04-21 22:25:00,
2013-04-21 20:47:00,31.5,22.2,30.45,NE,45,0.0,-999.0,68,-99.99,,,0.00,Acu-Link.com,2013-04-22 00:47:00,
2013-04-21 21:02:00,31.5,22.2,30.47,NE,45,0.0,-999.0,68,-99.99,,,0.00,Acu-Link.com,2013-04-22 01:02:00,
2013-04-21 21:28:00,28.9,20.7,30.50,NE,45,0.0,-999.0,71,-99.99,,,0.00,Acu-Link.com,2013-04-22 01:28:00,
2013-04-21 21:45:00,28.2,21.0,30.47,NE,45,0.0,-999.0,74,-99.99,,,0.00,Acu-Link.com,2013-04-22 01:45:00,